createdAt,value
2019-03-15T00:10:52.593Z,98.15
2019-03-15T00:25:56.108Z,96.23
2019-03-15T00:40:59.756Z,99.82
2019-03-15T00:56:02.421Z,100.00
2019-03-15T01:11:05.023Z,96.93
2019-03-15T01:26:08.569Z,95.62
2019-03-15T01:41:11.170Z,95.27
2019-03-15T01:56:14.926Z,95.74
2019-03-15T02:11:17.482Z,96.96
2019-03-15T02:26:20.028Z,93.40
2019-03-15T02:41:22.592Z,92.21
2019-03-15T02:56:25.988Z,91.30
2019-03-15T03:11:28.556Z,88.58
2019-03-15T03:26:31.143Z,89.16
2019-03-15T03:41:34.217Z,95.70
2019-03-15T03:56:36.930Z,92.21
2019-03-15T04:11:39.685Z,90.09
2019-03-15T04:26:43.525Z,100.00
2019-03-15T04:41:49.123Z,100.00
2019-03-15T04:56:51.767Z,100.00
2019-03-15T05:11:55.242Z,100.00
2019-03-15T05:26:58.308Z,93.96
2019-03-15T05:42:05.215Z,86.85
2019-03-15T05:57:07.906Z,76.92
2019-03-15T06:12:10.493Z,67.35
2019-03-15T06:27:13.059Z,64.59
2019-03-15T06:42:16.977Z,63.35
2019-03-15T06:57:19.816Z,63.13
2019-03-15T07:12:22.671Z,61.91
2019-03-15T07:27:25.418Z,53.61
2019-03-15T07:42:28.260Z,50.17
2019-03-15T07:57:30.816Z,46.40
2019-03-15T08:12:33.376Z,40.76
2019-03-15T08:27:37.379Z,37.86
2019-03-15T08:42:43.906Z,34.44
2019-03-15T08:57:46.837Z,34.49
2019-03-15T09:12:49.504Z,37.42
2019-03-15T09:27:54.236Z,34.04
2019-03-15T09:42:59.812Z,31.97
2019-03-15T09:58:01.568Z,30.64
2019-03-15T10:13:06.532Z,30.56
2019-03-15T10:28:09.225Z,29.22
2019-03-15T10:43:12.583Z,30.79
2019-03-15T10:58:15.152Z,28.98
2019-03-15T11:13:17.762Z,28.39
2019-03-15T11:28:20.961Z,27.92
2019-03-15T11:43:25.305Z,26.50
2019-03-15T11:58:28.900Z,28.27
2019-03-15T12:13:31.457Z,31.11
2019-03-15T12:28:34.019Z,29.71
2019-03-15T12:43:36.564Z,32.89
2019-03-15T12:58:42.152Z,32.45
2019-03-15T13:13:46.335Z,31.11
2019-03-15T13:28:49.217Z,32.29
2019-03-15T13:43:51.768Z,32.40
2019-03-15T13:58:57.556Z,35.25
2019-03-15T14:13:59.360Z,35.74
2019-03-15T14:29:01.959Z,37.62
2019-03-15T14:44:04.698Z,39.06
2019-03-15T14:59:08.290Z,41.89
2019-03-15T15:14:11.074Z,44.27
2019-03-15T15:29:13.649Z,46.05
2019-03-15T15:44:16.584Z,46.06
2019-03-15T15:59:21.713Z,48.91
2019-03-15T16:14:26.916Z,49.79
2019-03-15T16:29:29.757Z,52.28
2019-03-15T16:44:35.147Z,54.34
2019-03-15T16:59:38.265Z,55.78
2019-03-15T17:14:40.817Z,57.36
2019-03-15T17:29:44.374Z,64.43
2019-03-15T17:44:47.730Z,57.54
2019-03-15T18:00:00.879Z,57.98
2019-03-15T18:15:06.286Z,59.01
2019-03-15T18:30:14.431Z,61.70
2019-03-15T18:45:18.318Z,61.70
2019-03-15T19:00:25.017Z,63.42
2019-03-15T19:15:28.356Z,63.25
2019-03-15T19:30:30.965Z,63.75
2019-03-15T19:45:33.546Z,65.82
2019-03-15T20:00:36.132Z,63.10
2019-03-15T20:15:40.374Z,63.66
2019-03-15T20:30:51.693Z,62.69
2019-03-15T20:45:48.549Z,60.21
2019-03-15T21:00:51.127Z,62.17
2019-03-15T21:15:57.664Z,63.05
2019-03-15T21:31:00.238Z,60.54
2019-03-15T21:46:02.807Z,61.56
2019-03-15T22:01:05.350Z,61.32
2019-03-15T22:16:07.909Z,60.71
2019-03-15T22:31:16.415Z,61.74
2019-03-15T22:46:15.609Z,60.53
2019-03-15T23:01:29.503Z,59.97
2019-03-15T23:16:24.574Z,61.48
2019-03-15T23:31:28.568Z,58.42
2019-03-15T23:46:33.489Z,59.71
